Time;durP1;ratioP1;P1;durP2;ratioP2;P2;SDS_P1;SDS_P2;PMS_P1;PMS_P2;Temp;Humidity;BMP_temperature;BMP_pressure;BME280_temperature;BME280_humidity;BME280_pressure;Samples;Min_cycle;Max_cycle;Signal;HPM_P1;HPM_P2
2022/07/03 00:02:17;;;;;;;;;;;18.60;99.90;;;;;;5030405;28;19917;-68
2022/07/03 00:04:42;;;;;;;;;;;18.60;99.90;;;;;;5030736;28;19917;-68
2022/07/03 00:07:08;;;;;;;;;;;18.50;99.90;;;;;;5012700;28;19921;-68
2022/07/03 00:09:33;;;;;;;;;;;18.50;99.90;;;;;;5027290;28;19917;-68
2022/07/03 00:12:02;;;;;;;;;;;18.50;99.90;;;;;;5012725;28;20308;-68
2022/07/03 00:14:27;;;;;;;;;;;18.40;99.90;;;;;;5028230;28;19917;-68
2022/07/03 00:16:53;;;;;;;;;;;18.40;99.90;;;;;;5013226;28;19928;-68
2022/07/03 00:19:18;;;;;;;;;;;18.40;99.90;;;;;;5026962;28;19928;-68
2022/07/03 00:21:52;;;;;;;;;;;18.30;99.90;;;;;;5030206;28;19917;-68
2022/07/03 00:24:26;;;;;;;;;;;18.30;99.90;;;;;;5029491;28;19929;-68
2022/07/03 00:26:52;;;;;;;;;;;18.30;99.90;;;;;;5008452;28;19921;-68
2022/07/03 00:29:19;;;;;;;;;;;18.20;99.90;;;;;;5006965;28;19924;-68
2022/07/03 00:31:46;;;;;;;;;;;18.10;99.90;;;;;;5029098;28;19917;-68
2022/07/03 00:34:14;;;;;;;;;;;18.10;99.90;;;;;;5030282;28;19925;-68
2022/07/03 00:36:40;;;;;;;;;;;18.00;99.90;;;;;;5009408;28;20011;-68
2022/07/03 00:39:08;;;;;;;;;;;18.00;99.90;;;;;;5030121;28;20004;-68
2022/07/03 00:41:38;;;;;;;;;;;17.90;99.90;;;;;;5000861;28;19940;-68
2022/07/03 00:44:04;;;;;;;;;;;17.90;99.90;;;;;;5015200;28;19975;-68
2022/07/03 00:46:29;;;;;;;;;;;17.90;99.90;;;;;;5011658;28;19917;-68
2022/07/03 00:48:56;;;;;;;;;;;17.90;99.90;;;;;;5029717;28;20028;-68
2022/07/03 00:51:23;;;;;;;;;;;17.90;99.90;;;;;;5029955;28;19917;-68
2022/07/03 00:53:49;;;;;;;;;;;17.90;99.90;;;;;;5001952;28;20146;-67
2022/07/03 00:56:15;;;;;;;;;;;18.00;99.90;;;;;;5011536;28;19917;-68
2022/07/03 00:58:41;;;;;;;;;;;18.00;99.90;;;;;;5029293;28;19960;-68
2022/07/03 01:01:08;;;;;;;;;;;17.90;99.90;;;;;;4995006;28;20357;-68
2022/07/03 01:03:37;;;;;;;;;;;17.90;99.90;;;;;;5010089;28;20431;-68
2022/07/03 01:06:10;;;;;;;;;;;17.90;99.90;;;;;;4995395;28;20310;-68
2022/07/03 01:08:45;;;;;;;;;;;17.90;99.90;;;;;;5012049;28;19975;-67
2022/07/03 01:11:21;;;;;;;;;;;17.90;99.90;;;;;;5028784;28;19917;-68
2022/07/03 01:13:53;;;;;;;;;;;17.80;99.90;;;;;;5003682;28;19921;-68
2022/07/03 01:16:22;;;;;;;;;;;17.80;99.90;;;;;;5010650;28;19994;-67
2022/07/03 01:18:58;;;;;;;;;;;17.80;99.90;;;;;;5011569;28;19917;-68
2022/07/03 01:21:27;;;;;;;;;;;17.60;99.90;;;;;;5010800;28;19917;-67
2022/07/03 01:23:58;;;;;;;;;;;17.60;99.90;;;;;;5028412;28;20012;-68
2022/07/03 01:26:26;;;;;;;;;;;17.60;99.90;;;;;;5011335;28;19917;-68
2022/07/03 01:28:52;;;;;;;;;;;17.60;99.90;;;;;;5011018;28;19927;-68
2022/07/03 01:31:20;;;;;;;;;;;17.50;99.90;;;;;;5022224;28;19917;-67
2022/07/03 01:33:46;;;;;;;;;;;17.50;99.90;;;;;;5027914;28;19921;-68
2022/07/03 01:36:15;;;;;;;;;;;17.50;99.90;;;;;;5029377;28;19924;-68
2022/07/03 01:38:40;;;;;;;;;;;17.40;99.90;;;;;;5030031;28;19924;-68
2022/07/03 01:41:07;;;;;;;;;;;17.40;99.90;;;;;;5007768;28;19917;-68
2022/07/03 01:43:36;;;;;;;;;;;17.30;99.90;;;;;;5004563;28;20120;-68
2022/07/03 01:46:03;;;;;;;;;;;17.30;99.90;;;;;;4990791;28;20326;-68
2022/07/03 01:48:29;;;;;;;;;;;17.20;99.90;;;;;;4990595;28;19921;-68
2022/07/03 01:50:55;;;;;;;;;;;17.10;99.90;;;;;;5014901;28;19970;-68
2022/07/03 01:53:23;;;;;;;;;;;17.10;99.90;;;;;;5010684;28;19928;-68
2022/07/03 01:55:50;;;;;;;;;;;17.00;99.90;;;;;;5011223;28;19916;-68
2022/07/03 01:58:15;;;;;;;;;;;17.00;99.90;;;;;;5027820;28;19916;-68
2022/07/03 02:00:55;;;;;;;;;;;17.00;99.90;;;;;;5003423;28;19924;-68
2022/07/03 02:03:28;;;;;;;;;;;17.00;99.90;;;;;;5027544;28;19928;-68
2022/07/03 02:06:01;;;;;;;;;;;17.00;99.90;;;;;;5010958;28;20400;-68
2022/07/03 02:08:45;;;;;;;;;;;17.00;99.90;;;;;;5028084;28;20339;-68
2022/07/03 02:11:15;;;;;;;;;;;17.00;99.90;;;;;;5023410;28;20004;-68
2022/07/03 02:13:59;;;;;;;;;;;16.90;99.90;;;;;;5007982;28;19920;-68
2022/07/03 02:16:26;;;;;;;;;;;16.90;99.90;;;;;;5010692;28;19924;-68
2022/07/03 02:19:07;;;;;;;;;;;16.90;99.90;;;;;;5019732;28;19950;-68
2022/07/03 02:21:33;;;;;;;;;;;16.90;99.90;;;;;;4994119;28;19974;-68
2022/07/03 02:24:03;;;;;;;;;;;16.80;99.90;;;;;;5010337;28;20324;-68
2022/07/03 02:26:37;;;;;;;;;;;16.70;99.90;;;;;;5010345;28;19928;-68
2022/07/03 02:29:04;;;;;;;;;;;16.70;99.90;;;;;;5015379;28;19917;-68
2022/07/03 02:31:33;;;;;;;;;;;16.70;99.90;;;;;;5027156;28;19917;-68
2022/07/03 02:34:02;;;;;;;;;;;16.70;99.90;;;;;;5027567;28;19931;-68
2022/07/03 02:36:29;;;;;;;;;;;16.60;99.90;;;;;;5010614;28;20400;-68
2022/07/03 02:38:55;;;;;;;;;;;16.60;99.90;;;;;;5026280;28;19917;-68
2022/07/03 02:41:24;;;;;;;;;;;16.60;99.90;;;;;;5028163;28;20168;-68
2022/07/03 02:43:49;;;;;;;;;;;16.60;99.90;;;;;;5018093;28;20311;-68
2022/07/03 02:49:11;;;;;;;;;;;16.60;99.90;;;;;;5009545;28;19917;-68
2022/07/03 02:51:37;;;;;;;;;;;16.60;99.90;;;;;;5010969;28;19925;-68
2022/07/03 02:54:08;;;;;;;;;;;16.50;99.90;;;;;;5006646;28;20364;-68
2022/07/03 02:56:51;;;;;;;;;;;16.50;99.90;;;;;;5025366;28;19995;-68
2022/07/03 02:59:33;;;;;;;;;;;16.40;99.90;;;;;;5028771;28;19928;-67
2022/07/03 03:02:06;;;;;;;;;;;16.40;99.90;;;;;;5030832;28;19921;-68
2022/07/03 03:04:32;;;;;;;;;;;16.40;99.90;;;;;;4997123;28;20397;-67
2022/07/03 03:07:01;;;;;;;;;;;16.40;99.90;;;;;;5031301;28;20076;-68
2022/07/03 03:09:29;;;;;;;;;;;16.40;99.90;;;;;;5031904;28;20309;-68
2022/07/03 03:11:57;;;;;;;;;;;16.30;99.90;;;;;;5026679;28;19924;-68
2022/07/03 03:14:24;;;;;;;;;;;16.30;99.90;;;;;;5028927;28;19917;-68
2022/07/03 03:16:53;;;;;;;;;;;16.30;99.90;;;;;;5031127;28;19927;-67
2022/07/03 03:19:22;;;;;;;;;;;16.20;99.90;;;;;;5013755;28;20289;-68
2022/07/03 03:21:51;;;;;;;;;;;16.20;99.90;;;;;;5025411;28;19925;-68
2022/07/03 03:24:17;;;;;;;;;;;16.20;99.90;;;;;;5012263;28;19952;-69
2022/07/03 03:26:43;;;;;;;;;;;16.20;99.90;;;;;;5030117;28;19917;-68
2022/07/03 03:29:08;;;;;;;;;;;16.30;99.90;;;;;;5030613;28;19921;-68
2022/07/03 03:31:37;;;;;;;;;;;16.20;99.90;;;;;;5012421;28;19939;-68
2022/07/03 03:34:03;;;;;;;;;;;16.30;99.90;;;;;;5030472;28;19921;-67
2022/07/03 03:36:29;;;;;;;;;;;16.20;99.90;;;;;;5027735;28;20400;-68
2022/07/03 03:38:55;;;;;;;;;;;16.20;99.90;;;;;;4994291;28;19918;-68
2022/07/03 03:41:23;;;;;;;;;;;16.10;99.90;;;;;;4985359;28;19917;-68
2022/07/03 03:43:49;;;;;;;;;;;16.20;99.90;;;;;;5028527;28;20347;-67
2022/07/03 03:46:14;;;;;;;;;;;16.20;99.90;;;;;;5029992;28;20067;-67
2022/07/03 03:48:41;;;;;;;;;;;16.10;99.90;;;;;;5007486;28;19968;-68
2022/07/03 03:51:09;;;;;;;;;;;16.20;99.90;;;;;;5008270;28;19939;-67
2022/07/03 03:53:35;;;;;;;;;;;16.20;99.90;;;;;;5011940;28;19924;-68
2022/07/03 03:56:03;;;;;;;;;;;16.20;99.90;;;;;;5030938;28;19924;-67
2022/07/03 03:58:29;;;;;;;;;;;16.20;99.90;;;;;;5020715;28;19968;-68
2022/07/03 04:00:55;;;;;;;;;;;16.30;99.90;;;;;;5012636;28;19924;-68
2022/07/03 04:03:20;;;;;;;;;;;16.30;99.90;;;;;;5047136;22;19921;-71
2022/07/03 04:05:46;;;;;;;;;;;16.30;99.90;;;;;;5005848;28;20015;-71
2022/07/03 04:08:12;;;;;;;;;;;16.30;99.90;;;;;;5042979;28;19932;-71
2022/07/03 04:10:38;;;;;;;;;;;16.30;99.90;;;;;;5009396;28;19964;-71
2022/07/03 04:13:04;;;;;;;;;;;16.40;99.90;;;;;;4996080;28;19929;-72
2022/07/03 04:15:29;;;;;;;;;;;16.40;99.90;;;;;;5017901;28;19917;-71
2022/07/03 04:17:55;;;;;;;;;;;16.40;99.90;;;;;;5028823;28;20131;-72
2022/07/03 04:20:20;;;;;;;;;;;16.50;99.90;;;;;;5028353;28;20404;-71
2022/07/03 04:22:48;;;;;;;;;;;16.50;99.90;;;;;;5011042;28;19927;-72
2022/07/03 04:25:13;;;;;;;;;;;16.60;99.90;;;;;;5007159;28;19917;-71
2022/07/03 04:27:39;;;;;;;;;;;16.60;99.90;;;;;;5029726;28;20527;-71
2022/07/03 04:30:09;;;;;;;;;;;16.70;99.90;;;;;;5030313;28;19921;-71
2022/07/03 04:32:35;;;;;;;;;;;16.80;99.90;;;;;;5004891;28;19925;-71
2022/07/03 04:35:00;;;;;;;;;;;16.80;99.90;;;;;;5027474;28;20339;-72
2022/07/03 04:37:26;;;;;;;;;;;16.80;99.90;;;;;;5028662;28;20455;-72
2022/07/03 04:39:51;;;;;;;;;;;16.90;99.90;;;;;;4994367;28;19932;-71
2022/07/03 04:42:17;;;;;;;;;;;16.90;99.90;;;;;;5021683;28;19994;-71
2022/07/03 04:44:42;;;;;;;;;;;16.90;99.90;;;;;;5010497;28;20219;-71
2022/07/03 04:47:08;;;;;;;;;;;17.00;99.90;;;;;;5026225;28;19935;-71
2022/07/03 04:49:33;;;;;;;;;;;17.10;99.90;;;;;;5012541;28;19988;-71
2022/07/03 04:51:59;;;;;;;;;;;17.10;99.90;;;;;;5010465;28;19932;-71
2022/07/03 04:54:24;;;;;;;;;;;17.20;99.90;;;;;;5009507;28;19920;-71
2022/07/03 04:56:50;;;;;;;;;;;17.20;99.90;;;;;;5023977;28;20326;-71
2022/07/03 04:59:15;;;;;;;;;;;17.20;99.90;;;;;;5009937;28;19933;-72
2022/07/03 05:01:41;;;;;;;;;;;17.30;99.90;;;;;;5009223;28;19939;-71
2022/07/03 05:04:06;;;;;;;;;;;17.30;99.90;;;;;;5027086;28;20285;-72
2022/07/03 05:06:32;;;;;;;;;;;17.30;99.90;;;;;;5018200;28;19921;-71
2022/07/03 05:08:57;;;;;;;;;;;17.30;99.90;;;;;;5010234;28;19917;-71
2022/07/03 05:11:23;;;;;;;;;;;17.40;99.90;;;;;;5009288;28;20389;-71
2022/07/03 05:13:49;;;;;;;;;;;17.40;99.90;;;;;;5010661;28;19991;-71
2022/07/03 05:16:14;;;;;;;;;;;17.40;99.90;;;;;;5035761;28;19925;-71
2022/07/03 05:18:39;;;;;;;;;;;17.40;99.90;;;;;;5024459;28;19928;-71
2022/07/03 05:21:05;;;;;;;;;;;17.50;99.90;;;;;;5009539;28;19917;-71
2022/07/03 05:23:30;;;;;;;;;;;17.50;99.90;;;;;;5024564;28;20331;-71
2022/07/03 05:25:58;;;;;;;;;;;17.60;99.90;;;;;;5009718;28;19917;-71
2022/07/03 05:28:24;;;;;;;;;;;17.60;99.90;;;;;;5008888;28;20117;-71
2022/07/03 05:30:49;;;;;;;;;;;17.50;99.90;;;;;;5009418;28;19916;-71
2022/07/03 05:33:15;;;;;;;;;;;17.60;99.90;;;;;;5025096;28;19950;-71
2022/07/03 05:35:40;;;;;;;;;;;17.60;99.90;;;;;;5025829;28;20011;-71
2022/07/03 05:38:06;;;;;;;;;;;17.60;99.90;;;;;;5009396;28;19991;-71
2022/07/03 05:40:31;;;;;;;;;;;17.60;99.90;;;;;;5027029;28;20426;-71
2022/07/03 05:42:56;;;;;;;;;;;17.70;99.90;;;;;;5024415;28;19917;-71
2022/07/03 05:45:22;;;;;;;;;;;17.70;99.90;;;;;;5025561;28;19917;-71
2022/07/03 05:47:48;;;;;;;;;;;17.60;99.90;;;;;;5008667;28;19917;-71
2022/07/03 05:50:13;;;;;;;;;;;17.60;99.90;;;;;;5008457;28;19921;-71
2022/07/03 05:52:39;;;;;;;;;;;17.60;99.90;;;;;;4990317;28;19967;-72
2022/07/03 05:55:05;;;;;;;;;;;17.70;99.90;;;;;;5026810;28;19952;-71
2022/07/03 05:57:30;;;;;;;;;;;17.70;99.90;;;;;;5008825;28;19917;-72
2022/07/03 05:59:56;;;;;;;;;;;17.70;99.90;;;;;;5024145;28;19917;-72
2022/07/03 06:02:22;;;;;;;;;;;17.70;99.90;;;;;;4992078;28;19917;-72
2022/07/03 06:04:47;;;;;;;;;;;17.70;99.90;;;;;;5007705;28;19921;-71
2022/07/03 06:07:13;;;;;;;;;;;17.80;99.90;;;;;;5007911;28;20008;-71
2022/07/03 06:09:38;;;;;;;;;;;17.80;99.90;;;;;;5008083;28;19928;-71
2022/07/03 06:12:04;;;;;;;;;;;17.90;99.90;;;;;;5009051;28;19917;-71
2022/07/03 06:14:29;;;;;;;;;;;17.90;99.90;;;;;;5023883;28;19963;-71
2022/07/03 06:16:55;;;;;;;;;;;18.00;99.90;;;;;;5023499;28;19924;-72
2022/07/03 06:19:20;;;;;;;;;;;18.00;99.90;;;;;;5021310;28;20411;-71
2022/07/03 06:21:46;;;;;;;;;;;18.00;99.90;;;;;;5008144;28;19964;-71
2022/07/03 06:24:11;;;;;;;;;;;18.00;99.90;;;;;;5008301;28;19925;-71
2022/07/03 06:26:37;;;;;;;;;;;18.10;99.90;;;;;;5001062;28;19921;-71
2022/07/03 06:29:02;;;;;;;;;;;18.10;99.90;;;;;;5015472;28;19917;-71
2022/07/03 06:31:28;;;;;;;;;;;18.20;99.90;;;;;;5007921;28;19971;-71
2022/07/03 06:33:53;;;;;;;;;;;18.20;99.90;;;;;;5011700;28;19921;-71
2022/07/03 06:36:19;;;;;;;;;;;18.30;99.90;;;;;;5012840;28;20032;-71
2022/07/03 06:38:44;;;;;;;;;;;18.30;99.90;;;;;;5011980;28;19921;-71
2022/07/03 06:41:10;;;;;;;;;;;18.30;99.90;;;;;;5011835;28;19917;-71
2022/07/03 06:43:35;;;;;;;;;;;18.40;99.90;;;;;;5009209;28;20341;-71
2022/07/03 06:46:01;;;;;;;;;;;18.50;99.90;;;;;;5030899;28;19921;-72
2022/07/03 06:48:26;;;;;;;;;;;18.60;99.90;;;;;;5011936;28;20319;-71
2022/07/03 06:50:52;;;;;;;;;;;18.60;99.90;;;;;;5026740;28;19925;-72
2022/07/03 06:53:17;;;;;;;;;;;18.60;99.90;;;;;;5025024;28;19921;-72
2022/07/03 06:55:43;;;;;;;;;;;18.70;99.90;;;;;;5011282;28;19924;-71
2022/07/03 06:58:08;;;;;;;;;;;18.80;99.90;;;;;;5030010;28;20357;-72
2022/07/03 07:00:34;;;;;;;;;;;18.80;99.90;;;;;;5027779;28;19917;-71
2022/07/03 07:02:59;;;;;;;;;;;18.90;99.90;;;;;;5012959;28;20300;-71
2022/07/03 07:05:25;;;;;;;;;;;18.90;99.90;;;;;;5011091;28;20253;-71
2022/07/03 07:07:50;;;;;;;;;;;18.90;99.90;;;;;;5030008;28;20055;-71
2022/07/03 07:10:16;;;;;;;;;;;18.90;99.90;;;;;;5007589;28;19925;-71
2022/07/03 07:12:41;;;;;;;;;;;19.00;99.90;;;;;;5040211;28;19929;-71
2022/07/03 07:15:07;;;;;;;;;;;19.00;99.90;;;;;;5025223;28;20012;-71
2022/07/03 07:17:32;;;;;;;;;;;19.00;99.90;;;;;;5043734;28;19916;-71
2022/07/03 07:19:58;;;;;;;;;;;19.00;99.90;;;;;;5027609;28;19928;-71
2022/07/03 07:22:25;;;;;;;;;;;19.10;99.90;;;;;;5029486;28;19917;-71
2022/07/03 07:24:51;;;;;;;;;;;19.10;99.90;;;;;;5011516;28;20459;-70
2022/07/03 07:27:16;;;;;;;;;;;19.00;99.90;;;;;;5012002;28;20011;-71
2022/07/03 07:29:42;;;;;;;;;;;19.10;99.90;;;;;;4993577;28;19980;-71
2022/07/03 07:32:07;;;;;;;;;;;19.10;99.90;;;;;;5010871;28;19975;-71
2022/07/03 07:34:33;;;;;;;;;;;19.10;99.90;;;;;;5010772;28;19917;-71
2022/07/03 07:36:58;;;;;;;;;;;19.20;99.90;;;;;;5023252;28;19917;-71
2022/07/03 07:39:24;;;;;;;;;;;19.10;99.90;;;;;;5010004;28;19917;-71
2022/07/03 07:41:49;;;;;;;;;;;19.20;99.90;;;;;;5010149;28;20151;-71
2022/07/03 07:44:15;;;;;;;;;;;19.20;99.90;;;;;;5009100;28;19921;-71
2022/07/03 07:46:40;;;;;;;;;;;19.30;99.90;;;;;;5022920;28;19924;-71
2022/07/03 07:49:06;;;;;;;;;;;19.30;99.90;;;;;;5027731;28;19921;-71
2022/07/03 07:51:31;;;;;;;;;;;19.40;99.90;;;;;;5010943;28;19975;-71
2022/07/03 07:53:57;;;;;;;;;;;19.40;99.90;;;;;;5029176;28;20179;-71
2022/07/03 07:56:24;;;;;;;;;;;19.50;99.90;;;;;;5006863;28;19917;-71
2022/07/03 07:58:50;;;;;;;;;;;19.60;99.90;;;;;;4994190;28;20517;-71
2022/07/03 08:06:43;;;;;;;;;;;19.70;99.90;;;;;;5011346;28;20509;-70
2022/07/03 08:09:09;;;;;;;;;;;19.70;99.90;;;;;;5029175;28;20030;-71
2022/07/03 08:11:34;;;;;;;;;;;19.90;99.90;;;;;;5028924;28;19921;-71
2022/07/03 08:14:00;;;;;;;;;;;19.90;99.90;;;;;;5024722;28;19948;-70
2022/07/03 08:16:25;;;;;;;;;;;20.00;99.90;;;;;;5027292;28;20012;-71
2022/07/03 08:18:52;;;;;;;;;;;20.00;99.90;;;;;;5028344;28;19917;-71
2022/07/03 08:21:18;;;;;;;;;;;20.00;99.90;;;;;;5010170;28;20238;-71
2022/07/03 08:23:43;;;;;;;;;;;20.10;99.90;;;;;;5006545;28;19917;-71
2022/07/03 08:26:09;;;;;;;;;;;20.20;99.90;;;;;;5028660;28;19940;-71
2022/07/03 08:28:34;;;;;;;;;;;20.20;99.90;;;;;;5014556;28;19933;-71
2022/07/03 08:31:00;;;;;;;;;;;20.20;99.90;;;;;;5010940;28;19922;-70
2022/07/03 08:33:25;;;;;;;;;;;20.30;99.90;;;;;;5010115;28;20245;-71
2022/07/03 08:35:51;;;;;;;;;;;20.30;99.90;;;;;;5010759;28;19929;-71
2022/07/03 08:38:16;;;;;;;;;;;20.40;99.90;;;;;;5027064;28;19928;-71
2022/07/03 08:40:43;;;;;;;;;;;20.40;99.90;;;;;;5028953;28;20047;-70
2022/07/03 08:43:08;;;;;;;;;;;20.50;99.90;;;;;;5014862;28;19978;-70
2022/07/03 08:45:36;;;;;;;;;;;20.50;99.90;;;;;;5026415;28;20000;-71
2022/07/03 08:48:04;;;;;;;;;;;20.60;99.90;;;;;;5012793;28;19917;-71
2022/07/03 08:50:32;;;;;;;;;;;20.70;99.90;;;;;;5010186;28;19932;-71
2022/07/03 08:52:58;;;;;;;;;;;20.70;99.90;;;;;;5010533;28;20327;-71
2022/07/03 08:55:24;;;;;;;;;;;20.80;99.90;;;;;;5009446;28;19927;-70
2022/07/03 08:57:50;;;;;;;;;;;20.90;99.90;;;;;;5009387;28;19920;-70
2022/07/03 09:00:16;;;;;;;;;;;20.90;99.90;;;;;;5028048;28;20285;-71
2022/07/03 09:02:46;;;;;;;;;;;20.90;99.90;;;;;;5028192;28;19935;-71
2022/07/03 09:05:12;;;;;;;;;;;20.90;99.90;;;;;;5026327;28;20030;-70
2022/07/03 09:07:42;;;;;;;;;;;20.90;99.90;;;;;;4993593;28;19917;-71
2022/07/03 09:10:09;;;;;;;;;;;21.00;99.90;;;;;;4993526;28;20008;-70
2022/07/03 09:12:35;;;;;;;;;;;21.00;99.90;;;;;;5007299;28;20324;-71
2022/07/03 09:15:01;;;;;;;;;;;21.20;99.90;;;;;;5026073;28;19968;-71
2022/07/03 09:17:29;;;;;;;;;;;21.20;99.90;;;;;;5009873;28;20404;-71
2022/07/03 09:19:57;;;;;;;;;;;21.30;99.90;;;;;;5027805;28;20361;-70
2022/07/03 09:22:24;;;;;;;;;;;21.40;99.90;;;;;;5027448;28;19923;-70
2022/07/03 09:24:50;;;;;;;;;;;21.50;99.90;;;;;;5025960;28;19960;-70
2022/07/03 09:27:17;;;;;;;;;;;21.60;99.90;;;;;;5028055;28;20016;-71
2022/07/03 09:30:02;;;;;;;;;;;21.60;99.90;;;;;;5010072;28;20028;-71
2022/07/03 09:32:38;;;;;;;;;;;21.60;99.90;;;;;;4991493;28;19921;-71
2022/07/03 09:35:09;;;;;;;;;;;21.50;99.90;;;;;;5026507;28;19917;-70
2022/07/03 09:37:36;;;;;;;;;;;21.30;99.90;;;;;;5009909;28;19983;-70
2022/07/03 09:40:02;;;;;;;;;;;21.30;99.90;;;;;;5008943;28;19979;-71
2022/07/03 09:42:28;;;;;;;;;;;21.30;99.90;;;;;;5018166;28;20341;-71
2022/07/03 09:44:54;;;;;;;;;;;21.40;99.90;;;;;;5000266;28;19917;-70
2022/07/03 09:47:21;;;;;;;;;;;21.50;99.90;;;;;;5009258;28;19983;-71
2022/07/03 09:49:46;;;;;;;;;;;21.60;99.90;;;;;;5008055;28;20107;-71
2022/07/03 09:52:30;;;;;;;;;;;21.80;99.90;;;;;;5024878;28;20011;-71
2022/07/03 09:54:56;;;;;;;;;;;21.90;99.90;;;;;;4973610;28;19921;-70
2022/07/03 09:57:22;;;;;;;;;;;21.90;99.90;;;;;;4972687;28;19917;-71
2022/07/03 09:59:48;;;;;;;;;;;21.80;99.90;;;;;;4992082;28;19924;-71
2022/07/03 10:02:14;;;;;;;;;;;21.90;99.90;;;;;;5008226;28;19917;-70
2022/07/03 10:04:39;;;;;;;;;;;21.90;99.90;;;;;;5045509;23;19932;-72
2022/07/03 10:07:05;;;;;;;;;;;22.00;99.90;;;;;;5035570;28;19917;-72
2022/07/03 10:09:32;;;;;;;;;;;22.20;99.90;;;;;;5028940;28;19924;-72
2022/07/03 10:11:58;;;;;;;;;;;22.20;99.90;;;;;;5033134;28;19921;-72
2022/07/03 10:14:28;;;;;;;;;;;22.20;99.90;;;;;;5049077;28;19921;-72
2022/07/03 10:16:55;;;;;;;;;;;22.10;99.90;;;;;;5031990;28;20003;-72
2022/07/03 10:19:22;;;;;;;;;;;22.10;99.90;;;;;;5040675;28;20328;-72
2022/07/03 10:21:55;;;;;;;;;;;22.00;99.90;;;;;;5037782;28;20055;-72
2022/07/03 10:24:21;;;;;;;;;;;22.20;99.90;;;;;;5030456;28;20277;-72
2022/07/03 10:26:48;;;;;;;;;;;22.30;99.90;;;;;;5034389;28;20289;-72
2022/07/03 10:29:15;;;;;;;;;;;22.40;99.90;;;;;;5031378;28;19917;-72
2022/07/03 10:31:45;;;;;;;;;;;22.50;99.90;;;;;;5049017;28;20258;-72
2022/07/03 10:34:11;;;;;;;;;;;22.50;99.90;;;;;;5048680;28;19932;-72
2022/07/03 10:36:37;;;;;;;;;;;22.60;99.90;;;;;;5044487;28;19917;-72
2022/07/03 10:39:05;;;;;;;;;;;22.60;99.90;;;;;;5027097;28;19971;-72
2022/07/03 10:47:03;;;;;;;;;;;22.40;99.90;;;;;;5039654;28;19924;-72
2022/07/03 10:49:29;;;;;;;;;;;22.50;99.90;;;;;;5030667;28;19921;-73
2022/07/03 10:51:59;;;;;;;;;;;22.60;99.90;;;;;;5029788;28;20017;-72
2022/07/03 10:54:33;;;;;;;;;;;22.70;99.90;;;;;;5027112;28;20361;-72
2022/07/03 10:56:59;;;;;;;;;;;22.70;99.90;;;;;;5047922;28;19928;-72
2022/07/03 10:59:37;;;;;;;;;;;22.40;99.90;;;;;;5048659;28;20292;-72
2022/07/03 11:02:21;;;;;;;;;;;22.40;99.90;;;;;;5047877;28;19923;-72
2022/07/03 11:04:59;;;;;;;;;;;22.30;99.90;;;;;;5042930;28;19917;-72
2022/07/03 11:07:31;;;;;;;;;;;22.30;99.90;;;;;;5047808;28;19916;-72
2022/07/03 11:10:10;;;;;;;;;;;22.20;99.90;;;;;;5050825;28;19924;-72
2022/07/03 11:12:57;;;;;;;;;;;22.30;99.90;;;;;;5043438;28;19921;-72
2022/07/03 11:15:25;;;;;;;;;;;22.10;99.90;;;;;;5045842;28;19959;-72
2022/07/03 11:18:06;;;;;;;;;;;21.90;99.90;;;;;;5038127;28;19928;-72
2022/07/03 11:20:41;;;;;;;;;;;21.80;99.90;;;;;;5011687;28;19916;-72
2022/07/03 11:23:09;;;;;;;;;;;21.70;99.90;;;;;;5035747;28;19924;-72
2022/07/03 11:25:39;;;;;;;;;;;21.80;99.90;;;;;;5049540;28;19984;-72
2022/07/03 11:28:05;;;;;;;;;;;21.90;99.90;;;;;;5050155;28;19923;-72
2022/07/03 11:30:31;;;;;;;;;;;21.90;99.90;;;;;;5051596;28;20320;-72
2022/07/03 11:32:57;;;;;;;;;;;21.80;99.90;;;;;;5051164;28;19967;-72
2022/07/03 11:35:42;;;;;;;;;;;21.70;99.90;;;;;;5051031;28;19923;-72
2022/07/03 11:38:07;;;;;;;;;;;21.60;99.90;;;;;;5052050;28;19943;-72
2022/07/03 11:40:35;;;;;;;;;;;21.60;99.90;;;;;;5049392;28;20003;-72
2022/07/03 11:43:01;;;;;;;;;;;21.80;99.90;;;;;;5038166;28;19925;-72
2022/07/03 11:45:30;;;;;;;;;;;21.90;99.90;;;;;;5029409;28;20398;-72
2022/07/03 11:47:56;;;;;;;;;;;22.00;99.90;;;;;;5030612;28;20007;-72
2022/07/03 11:50:35;;;;;;;;;;;22.10;99.90;;;;;;5033601;28;19995;-72
2022/07/03 11:53:14;;;;;;;;;;;22.30;99.90;;;;;;5035375;28;19921;-72
2022/07/03 11:55:46;;;;;;;;;;;22.40;99.90;;;;;;5050782;28;20277;-72
2022/07/03 11:58:12;;;;;;;;;;;22.60;99.90;;;;;;5043513;28;20365;-72
2022/07/03 12:00:37;;;;;;;;;;;22.70;99.90;;;;;;5030996;28;20004;-72
2022/07/03 12:03:03;;;;;;;;;;;22.70;99.90;;;;;;5048724;28;19956;-72
2022/07/03 12:05:29;;;;;;;;;;;22.60;99.90;;;;;;5032602;28;19942;-72
2022/07/03 12:08:04;;;;;;;;;;;22.70;99.90;;;;;;5046041;28;19917;-72
2022/07/03 12:10:39;;;;;;;;;;;22.60;99.90;;;;;;5029479;28;20427;-72
2022/07/03 12:13:18;;;;;;;;;;;22.50;99.90;;;;;;5043109;28;19928;-72
2022/07/03 12:15:43;;;;;;;;;;;22.60;99.90;;;;;;5050924;28;20016;-72
2022/07/03 12:18:09;;;;;;;;;;;22.70;99.90;;;;;;5044334;28;20941;-72
2022/07/03 12:20:34;;;;;;;;;;;22.80;99.90;;;;;;5030580;28;19917;-72
2022/07/03 12:23:00;;;;;;;;;;;22.80;99.90;;;;;;5031470;28;19924;-72
2022/07/03 12:25:29;;;;;;;;;;;22.80;99.90;;;;;;5045585;28;20373;-72
2022/07/03 12:27:54;;;;;;;;;;;22.80;99.90;;;;;;5035357;28;19916;-72
2022/07/03 12:30:25;;;;;;;;;;;23.00;99.90;;;;;;5050173;28;20383;-72
2022/07/03 12:32:51;;;;;;;;;;;23.10;99.90;;;;;;5028246;28;19925;-72
2022/07/03 12:35:34;;;;;;;;;;;23.20;99.90;;;;;;5030307;28;19917;-72
2022/07/03 12:38:00;;;;;;;;;;;23.40;99.90;;;;;;5028948;28;19917;-72
2022/07/03 12:40:25;;;;;;;;;;;23.50;99.90;;;;;;5031147;28;20346;-72
2022/07/03 12:42:52;;;;;;;;;;;23.20;99.90;;;;;;5041603;28;19999;-72
2022/07/03 12:45:22;;;;;;;;;;;23.30;99.90;;;;;;5026854;28;20340;-72
2022/07/03 12:47:58;;;;;;;;;;;23.10;99.90;;;;;;5030456;28;19939;-72
2022/07/03 12:50:24;;;;;;;;;;;23.00;99.90;;;;;;5030710;28;19916;-72
2022/07/03 12:52:56;;;;;;;;;;;22.80;99.90;;;;;;5028949;28;19931;-72
2022/07/03 12:55:22;;;;;;;;;;;22.60;99.90;;;;;;5033585;28;19940;-72
2022/07/03 13:00:42;;;;;;;;;;;22.30;99.90;;;;;;5028177;28;19917;-72
2022/07/03 13:03:08;;;;;;;;;;;22.20;99.90;;;;;;5036854;28;20242;-72
2022/07/03 13:05:41;;;;;;;;;;;22.20;99.90;;;;;;5046296;28;19917;-72
2022/07/03 13:08:06;;;;;;;;;;;22.10;99.90;;;;;;5050152;28;19917;-72
2022/07/03 13:10:32;;;;;;;;;;;22.10;99.90;;;;;;5040289;28;20027;-72
2022/07/03 13:12:58;;;;;;;;;;;22.00;99.90;;;;;;5035792;28;19928;-72
2022/07/03 13:15:25;;;;;;;;;;;21.90;99.90;;;;;;5044696;28;19917;-72
2022/07/03 13:17:50;;;;;;;;;;;21.70;99.90;;;;;;5042616;28;20154;-72
2022/07/03 13:20:16;;;;;;;;;;;21.60;99.90;;;;;;5033892;28;20095;-72
2022/07/03 13:22:41;;;;;;;;;;;21.50;99.90;;;;;;5033660;28;20062;-72
2022/07/03 13:25:07;;;;;;;;;;;21.40;99.90;;;;;;5047055;28;19924;-72
2022/07/03 13:27:32;;;;;;;;;;;21.20;99.90;;;;;;5036181;28;20007;-72
2022/07/03 13:29:58;;;;;;;;;;;21.10;99.90;;;;;;5047213;28;20415;-72
2022/07/03 13:32:23;;;;;;;;;;;21.10;99.90;;;;;;5048556;28;20285;-72
2022/07/03 13:34:49;;;;;;;;;;;21.00;99.90;;;;;;5025137;28;20070;-72
2022/07/03 13:37:14;;;;;;;;;;;21.00;99.90;;;;;;5026719;28;19916;-72
2022/07/03 13:39:40;;;;;;;;;;;20.90;99.90;;;;;;5027801;28;19928;-72
2022/07/03 13:42:10;;;;;;;;;;;20.80;99.90;;;;;;5036046;28;19921;-72
2022/07/03 13:44:36;;;;;;;;;;;20.50;99.90;;;;;;5038381;28;20405;-72
2022/07/03 13:47:01;;;;;;;;;;;20.30;99.90;;;;;;5031994;28;20051;-72
2022/07/03 13:49:27;;;;;;;;;;;20.20;99.90;;;;;;5048120;28;20383;-72
2022/07/03 13:51:53;;;;;;;;;;;20.10;99.90;;;;;;5038357;28;19924;-72
2022/07/03 13:54:18;;;;;;;;;;;20.00;99.90;;;;;;5028133;28;19928;-72
2022/07/03 13:56:44;;;;;;;;;;;19.90;99.90;;;;;;5010821;28;19917;-72
2022/07/03 13:59:11;;;;;;;;;;;19.80;99.90;;;;;;5029301;28;19917;-72
2022/07/03 14:01:37;;;;;;;;;;;19.80;99.90;;;;;;5034132;28;19917;-72
2022/07/03 14:04:03;;;;;;;;;;;19.60;99.90;;;;;;5047571;28;19916;-72
2022/07/03 14:06:29;;;;;;;;;;;19.60;99.90;;;;;;5031361;28;20516;-72
2022/07/03 14:08:54;;;;;;;;;;;19.50;99.90;;;;;;5047362;28;20345;-72
2022/07/03 14:11:20;;;;;;;;;;;19.40;99.90;;;;;;5041169;28;19917;-72
2022/07/03 14:13:45;;;;;;;;;;;19.20;99.90;;;;;;5048524;28;19920;-72
2022/07/03 14:16:12;;;;;;;;;;;19.10;99.90;;;;;;5048283;28;20210;-72
2022/07/03 14:18:37;;;;;;;;;;;19.00;99.90;;;;;;5039100;28;20373;-72
2022/07/03 14:21:05;;;;;;;;;;;19.00;99.90;;;;;;5040621;28;19956;-72
2022/07/03 14:23:32;;;;;;;;;;;18.90;99.90;;;;;;5047572;28;19923;-72
2022/07/03 14:25:58;;;;;;;;;;;18.90;99.90;;;;;;5046695;28;19916;-72
2022/07/03 14:33:46;;;;;;;;;;;19.10;99.90;;;;;;5027491;28;19928;-72
2022/07/03 14:36:12;;;;;;;;;;;19.20;99.90;;;;;;5032836;28;19920;-72
2022/07/03 14:38:37;;;;;;;;;;;19.30;99.90;;;;;;5030942;28;19939;-72
2022/07/03 14:41:03;;;;;;;;;;;19.50;99.90;;;;;;5026974;28;19998;-72